Joao Araujo

Olheiro - Benfica
4 Set 2027
Sábado
Processo

Personalidade

Adaptabilidade (10) Ambição (13) Controvérsia (14) Lealdade (3) Pressão (9) Profissionalismo (2) Espírito Esportivo (2) Temperamento (6)

Perfil

Estilo de Treinamento Democrático
Licença Nacional B
Determinação 16
Gestão de Pessoas 16
Motivação 8
Disciplina 14
Satisfação no Trabalho
100%
Fadiga
0%
Função Olheiro
Salário 63.7K p/s
Contrato 14.03.2028

Desempenho

Comportamento Bom
Eficácia do Treinamento
50%
Desenvolvimento do Jogador
45%
Prevenção de Lesões
60%
Implementação Tática
75%

Eventos Recentes

Participou de uma reunião de recrutamento 7d atrás
Avaliou um jogador 14d atrás
Participou de uma reunião de recrutamento 14d atrás
Apresentou um dossiê à direção 14d atrás
Participou de uma reunião de recrutamento 21d atrás
Participou de uma reunião de recrutamento 28d atrás
Participou de uma reunião de recrutamento 35d atrás
Participou de uma reunião de recrutamento 42d atrás

Monitorando agora

77
Jogador Clube Status Habilidade Confiança Observado Última observação Último voto
Thiago Szkaluba Santiago Wanderers Ativo 95 / 93 40% 1 31.08.2027 -
Kauã Moraes Cruzeiro Ativo 121 / 139 40% 1 31.08.2027 -
Daniel Banjaqui Wolverhampton Ativo 116 / 125 40% 1 31.08.2027 -
Giacomo Raspadori Atalanta Ativo 153 / 155 40% 1 16.08.2027 -
Raoul Bellanova Atalanta Perdido 152 / 160 40% 1 16.08.2027 -
Lander Astiazarán Real Sociedad Ativo 113 / 107 40% 1 12.07.2027 -
Oumar Camara Vitoria Guimaraes Ativo 130 / 140 40% 1 12.07.2027 -
Benjamin Tsivanyo Aduana Stars Ativo 86 / 96 40% 1 12.07.2027 -
Gabriel Brazão Santos Ativo 133 / 129 40% 1 31.05.2027 -
Ramón Terrats Getafe Ativo 143 / 143 40% 2 29.05.2027 -
António Silva Bournemouth Ativo 145 / 144 40% 1 29.05.2027 -
Yehor Yarmoliuk Brentford Ativo 154 / 155 40% 1 29.05.2027 -
Amadou Onana Newcastle United Ativo 156 / 152 40% 3 28.05.2027 -
Adrien Truffert Bournemouth Ativo 147 / 148 40% 1 28.05.2027 -
Diogo Dalot Manchester United Ativo 153 / 151 40% 2 27.05.2027 -
Ethan Ampadu Leeds United Ativo 148 / 146 40% 1 27.05.2027 -
Enzo Barrenechea Burnley Ativo 152 / 153 40% 2 26.05.2027 -
Igor Burnley Ativo 143 / 141 40% 1 26.05.2027 -
Quinten Timber Crystal Palace Ativo 152 / 160 40% 1 26.05.2027 -
Olivier Boscagli Brighton Ativo 144 / 152 40% 5 24.05.2027 -
Francisco Moura Penafiel Negociando 138 / 140 40% 1 24.05.2027 -
Rúben Dias Manchester City Ativo 176 / 172 40% 3 22.05.2027 -
Óscar Mingueza Crystal Palace Ativo 152 / 140 40% 3 22.05.2027 -
Gonçalo Inácio West Ham United Ativo 155 / 155 40% 3 21.05.2027 -
Jan Paul van Hecke Tottenham Ativo 161 / 164 40% 1 20.05.2027 -
Bruno Guimarães Arsenal Ativo 175 / 171 40% 4 19.05.2027 Observar
Nuno Tavares Lazio Ativo 143 / 151 40% 1 19.05.2027 -
Matty Cash Aston Villa Ativo 154 / 150 40% 1 19.05.2027 -
Thierry Rendall Correia Venezia Ativo 139 / 142 40% 3 12.05.2027 -
Jacob Greaves Ipswich Town Ativo 143 / 132 40% 1 12.05.2027 -
Maxence Lacroix Chelsea Ativo 147 / 151 40% 2 11.05.2027 -
Pedro Porro Tottenham Ativo 153 / 140 40% 2 11.05.2027 -
André Wolverhampton Ativo 148 / 152 40% 1 11.05.2027 -
Alex Scott Bournemouth Ativo 146 / 160 40% 2 04.05.2027 -
Anton Stach Leeds United Ativo 145 / 156 40% 1 03.05.2027 -
Tino Livramento Newcastle United Rejeitado 157 / 159 40% 2 01.05.2027 Mais informações
Mats Wieffer Brighton Ativo 146 / 155 40% 1 01.05.2027 -
James Garner Everton Ativo 148 / 144 40% 1 10.04.2027 -
Adam Wharton Crystal Palace Ativo 151 / 159 40% 1 10.04.2027 -
Tyler Adams Bournemouth Ativo 157 / 161 40% 1 06.04.2027 -
Ainsley Maitland-Niles Everton Ativo 141 / 129 40% 1 03.04.2027 -
Lucas Paquetá Flamengo Ativo 142 / 148 40% 1 03.04.2027 -
Carlos Augusto Inter Ativo 155 / 154 40% 1 31.03.2027 -
Levi Colwill Chelsea Ativo 160 / 161 40% 1 25.03.2027 -
Nico González Newcastle United Ativo 165 / 152 40% 1 23.03.2027 -
João Félix Aston Villa Ativo 151 / 146 40% 3 24.12.2026 Observar
Zé Leite Moreirense Ativo 123 / 104 40% 1 21.12.2026 -
Kevin Schade Brentford Ativo 152 / 139 40% 3 17.12.2026 -
Jalen Blesa Rio Ave Ativo 118 / 128 40% 1 17.12.2026 -
Brennan Johnson Everton Ativo 143 / 146 40% 2 16.12.2026 -
Rafael Leão Galatasaray Ativo 172 / 156 40% 4 16.12.2026 -
Pau Víctor Estrela da Amadora Ativo 138 / 133 40% 1 16.12.2026 -
Tamble Monteiro Rio Ave Ativo 117 / 107 40% 3 13.12.2026 -
Jerome Karelse Golden Arrows Ativo 106 / 100 40% 1 12.12.2026 -
Thiago Brentford Ativo 152 / 143 40% 2 10.12.2026 -
Korede Osundina Casa Pia Ativo 118 / 125 40% 1 28.11.2026 -
Liam Delap Nottingham Forest Ativo 148 / 156 40% 1 26.11.2026 -
Pablo Felipe West Ham United Ativo 133 / 135 40% 5 24.11.2026 -
Rumarn Burrell Queens Park Rangers Ativo 122 / 130 40% 2 20.11.2026 -
Gonzalo Fulham Ativo 148 / 142 40% 2 20.11.2026 -
Georginio Rutter Manchester City Ativo 146 / 152 40% 2 19.11.2026 -
Igor Jesus Nottingham Forest Ativo 141 / 144 40% 3 15.11.2026 -
Nicolas Jackson Aston Villa Ativo 146 / 145 40% 1 14.11.2026 -
Fábio Carvalho Brentford Ativo 139 / 129 40% 2 09.11.2026 -
Dango Ouattara Brentford Ativo 150 / 155 40% 1 09.11.2026 -
Vitinha Genoa Ativo 138 / 135 40% 2 06.11.2026 -
Figueiredo Alverca Ativo 125 / 127 40% 1 02.11.2026 -
Miguel Pereira Persebaya Ativo 124 / 109 40% 1 28.10.2026 -
Camilo Durán Bloemfontein Celtic Ativo 130 / 132 40% 2 26.10.2026 -
Kai Havertz Arsenal Ativo 161 / 156 40% 2 26.10.2026 -
Max Svensson Penafiel Ativo 109 / 111 40% 1 21.10.2026 -
Rafael Navarro St. Louis CITY SC Ativo 135 / 130 40% 1 16.10.2026 -
Nicolás Cordero Aldosivi Ativo 114 / 112 40% 1 16.10.2026 -
Jonny Arriba Chesterfield Ativo 107 / 92 40% 1 12.10.2026 -
Yanis Begraoui Estoril Praia Perdido 135 / 123 40% 1 06.10.2026 -
Mathis Jangeal Famalicao Ativo 86 / 109 40% 1 01.08.2026 -
Alexey Batrakov Galatasaray Ativo 138 / 131 40% 1 01.08.2026 -